sensor_id;sensor_type;location;lat;lon;timestamp;P1;durP1;ratioP1;P2;durP2;ratioP2
31638;SDS011;18248;51.522;7.020;2023-05-07T00:01:53;15.05;;;8.75;;
31638;SDS011;18248;51.522;7.020;2023-05-07T00:04:52;14.02;;;9.50;;
31638;SDS011;18248;51.522;7.020;2023-05-07T00:07:50;14.65;;;9.77;;
31638;SDS011;18248;51.522;7.020;2023-05-07T00:10:50;10.35;;;7.95;;
31638;SDS011;18248;51.522;7.020;2023-05-07T00:13:49;16.50;;;9.20;;
31638;SDS011;18248;51.522;7.020;2023-05-07T00:16:47;13.70;;;9.52;;
31638;SDS011;18248;51.522;7.020;2023-05-07T00:19:46;12.90;;;9.60;;
31638;SDS011;18248;51.522;7.020;2023-05-07T00:22:44;15.07;;;10.25;;
31638;SDS011;18248;51.522;7.020;2023-05-07T00:25:43;17.73;;;11.98;;
31638;SDS011;18248;51.522;7.020;2023-05-07T00:28:42;15.82;;;10.70;;
31638;SDS011;18248;51.522;7.020;2023-05-07T00:31:40;24.83;;;11.45;;
31638;SDS011;18248;51.522;7.020;2023-05-07T00:34:39;15.93;;;11.05;;
31638;SDS011;18248;51.522;7.020;2023-05-07T00:37:38;21.45;;;11.95;;
31638;SDS011;18248;51.522;7.020;2023-05-07T00:40:37;16.50;;;11.27;;
31638;SDS011;18248;51.522;7.020;2023-05-07T00:43:35;15.98;;;13.77;;
31638;SDS011;18248;51.522;7.020;2023-05-07T00:46:34;16.73;;;11.55;;
31638;SDS011;18248;51.522;7.020;2023-05-07T00:49:37;14.70;;;11.20;;
31638;SDS011;18248;51.522;7.020;2023-05-07T00:52:37;19.55;;;14.80;;
31638;SDS011;18248;51.522;7.020;2023-05-07T00:55:36;17.02;;;12.02;;
31638;SDS011;18248;51.522;7.020;2023-05-07T00:58:36;14.73;;;11.20;;
31638;SDS011;18248;51.522;7.020;2023-05-07T01:01:35;15.75;;;12.15;;
31638;SDS011;18248;51.522;7.020;2023-05-07T01:04:34;18.00;;;13.02;;
31638;SDS011;18248;51.522;7.020;2023-05-07T01:07:33;21.52;;;18.45;;
31638;SDS011;18248;51.522;7.020;2023-05-07T01:10:33;26.65;;;20.20;;
31638;SDS011;18248;51.522;7.020;2023-05-07T01:13:34;16.65;;;13.70;;
31638;SDS011;18248;51.522;7.020;2023-05-07T01:16:34;21.83;;;16.40;;
31638;SDS011;18248;51.522;7.020;2023-05-07T01:19:32;17.52;;;13.43;;
31638;SDS011;18248;51.522;7.020;2023-05-07T01:22:40;20.80;;;16.85;;
31638;SDS011;18248;51.522;7.020;2023-05-07T01:25:38;17.02;;;13.07;;
31638;SDS011;18248;51.522;7.020;2023-05-07T01:28:37;21.38;;;16.45;;
31638;SDS011;18248;51.522;7.020;2023-05-07T01:31:36;21.75;;;15.93;;
31638;SDS011;18248;51.522;7.020;2023-05-07T01:34:35;23.17;;;18.70;;
31638;SDS011;18248;51.522;7.020;2023-05-07T01:37:37;18.35;;;15.77;;
31638;SDS011;18248;51.522;7.020;2023-05-07T01:40:37;17.92;;;14.38;;
31638;SDS011;18248;51.522;7.020;2023-05-07T01:43:36;17.83;;;13.82;;
31638;SDS011;18248;51.522;7.020;2023-05-07T01:46:34;19.75;;;16.58;;
31638;SDS011;18248;51.522;7.020;2023-05-07T01:49:34;26.02;;;17.90;;
31638;SDS011;18248;51.522;7.020;2023-05-07T01:52:33;20.70;;;16.73;;
31638;SDS011;18248;51.522;7.020;2023-05-07T01:55:32;23.23;;;16.55;;
31638;SDS011;18248;51.522;7.020;2023-05-07T01:58:31;24.25;;;19.17;;
31638;SDS011;18248;51.522;7.020;2023-05-07T02:01:30;31.45;;;23.90;;
31638;SDS011;18248;51.522;7.020;2023-05-07T02:04:28;22.65;;;18.48;;
31638;SDS011;18248;51.522;7.020;2023-05-07T02:07:27;23.95;;;18.27;;
31638;SDS011;18248;51.522;7.020;2023-05-07T02:10:26;22.98;;;17.45;;
31638;SDS011;18248;51.522;7.020;2023-05-07T02:13:25;27.23;;;20.70;;
31638;SDS011;18248;51.522;7.020;2023-05-07T02:16:27;25.73;;;20.33;;
31638;SDS011;18248;51.522;7.020;2023-05-07T02:19:26;22.70;;;17.88;;
31638;SDS011;18248;51.522;7.020;2023-05-07T02:22:24;21.85;;;17.05;;
31638;SDS011;18248;51.522;7.020;2023-05-07T02:25:23;21.17;;;15.05;;
31638;SDS011;18248;51.522;7.020;2023-05-07T02:28:22;22.90;;;17.70;;
31638;SDS011;18248;51.522;7.020;2023-05-07T02:31:20;20.83;;;16.27;;
31638;SDS011;18248;51.522;7.020;2023-05-07T02:34:19;18.65;;;14.30;;
31638;SDS011;18248;51.522;7.020;2023-05-07T02:37:17;21.42;;;15.43;;
31638;SDS011;18248;51.522;7.020;2023-05-07T02:40:16;20.52;;;15.25;;
31638;SDS011;18248;51.522;7.020;2023-05-07T02:43:15;18.85;;;15.63;;
31638;SDS011;18248;51.522;7.020;2023-05-07T02:46:13;22.20;;;15.85;;
31638;SDS011;18248;51.522;7.020;2023-05-07T02:49:12;16.23;;;14.50;;
31638;SDS011;18248;51.522;7.020;2023-05-07T02:52:11;21.92;;;15.25;;
31638;SDS011;18248;51.522;7.020;2023-05-07T02:55:10;21.05;;;15.27;;
31638;SDS011;18248;51.522;7.020;2023-05-07T02:58:08;20.83;;;16.70;;
31638;SDS011;18248;51.522;7.020;2023-05-07T03:01:07;19.83;;;15.07;;
31638;SDS011;18248;51.522;7.020;2023-05-07T03:04:06;21.73;;;16.45;;
31638;SDS011;18248;51.522;7.020;2023-05-07T03:07:05;22.55;;;16.40;;
31638;SDS011;18248;51.522;7.020;2023-05-07T03:10:04;19.52;;;16.20;;
31638;SDS011;18248;51.522;7.020;2023-05-07T03:13:07;20.67;;;16.95;;
31638;SDS011;18248;51.522;7.020;2023-05-07T03:16:06;21.35;;;16.70;;
31638;SDS011;18248;51.522;7.020;2023-05-07T03:19:05;19.73;;;15.63;;
31638;SDS011;18248;51.522;7.020;2023-05-07T03:22:03;22.98;;;17.52;;
31638;SDS011;18248;51.522;7.020;2023-05-07T03:25:02;24.88;;;19.63;;
31638;SDS011;18248;51.522;7.020;2023-05-07T03:28:00;25.30;;;19.77;;
31638;SDS011;18248;51.522;7.020;2023-05-07T03:30:59;23.83;;;19.35;;
31638;SDS011;18248;51.522;7.020;2023-05-07T03:33:58;34.20;;;26.67;;
31638;SDS011;18248;51.522;7.020;2023-05-07T03:36:59;27.23;;;20.80;;
31638;SDS011;18248;51.522;7.020;2023-05-07T03:39:58;30.08;;;22.67;;
31638;SDS011;18248;51.522;7.020;2023-05-07T03:42:56;27.17;;;21.10;;
31638;SDS011;18248;51.522;7.020;2023-05-07T03:45:55;24.42;;;20.35;;
31638;SDS011;18248;51.522;7.020;2023-05-07T03:48:55;26.75;;;19.73;;
31638;SDS011;18248;51.522;7.020;2023-05-07T03:51:53;27.33;;;20.95;;
31638;SDS011;18248;51.522;7.020;2023-05-07T03:54:52;28.50;;;21.77;;
31638;SDS011;18248;51.522;7.020;2023-05-07T03:57:51;24.45;;;19.45;;
31638;SDS011;18248;51.522;7.020;2023-05-07T04:00:51;24.40;;;18.60;;
31638;SDS011;18248;51.522;7.020;2023-05-07T04:03:49;23.80;;;18.90;;
31638;SDS011;18248;51.522;7.020;2023-05-07T04:06:48;25.13;;;19.60;;
31638;SDS011;18248;51.522;7.020;2023-05-07T04:09:46;33.22;;;24.60;;
31638;SDS011;18248;51.522;7.020;2023-05-07T04:12:45;32.47;;;22.85;;
31638;SDS011;18248;51.522;7.020;2023-05-07T04:15:43;38.70;;;28.40;;
31638;SDS011;18248;51.522;7.020;2023-05-07T04:18:45;38.60;;;26.20;;
31638;SDS011;18248;51.522;7.020;2023-05-07T04:21:44;40.47;;;25.55;;
31638;SDS011;18248;51.522;7.020;2023-05-07T04:24:42;47.75;;;30.48;;
31638;SDS011;18248;51.522;7.020;2023-05-07T04:27:41;41.25;;;27.00;;
31638;SDS011;18248;51.522;7.020;2023-05-07T04:30:41;40.00;;;25.77;;
31638;SDS011;18248;51.522;7.020;2023-05-07T04:33:41;47.58;;;31.55;;
31638;SDS011;18248;51.522;7.020;2023-05-07T04:36:39;40.90;;;26.50;;
31638;SDS011;18248;51.522;7.020;2023-05-07T04:39:38;35.38;;;24.25;;
31638;SDS011;18248;51.522;7.020;2023-05-07T04:42:36;37.63;;;26.52;;
31638;SDS011;18248;51.522;7.020;2023-05-07T04:45:35;42.33;;;28.65;;
31638;SDS011;18248;51.522;7.020;2023-05-07T04:48:34;36.38;;;24.52;;
31638;SDS011;18248;51.522;7.020;2023-05-07T04:51:33;42.22;;;28.30;;
31638;SDS011;18248;51.522;7.020;2023-05-07T04:54:34;41.60;;;26.42;;
31638;SDS011;18248;51.522;7.020;2023-05-07T04:57:33;30.80;;;23.00;;
31638;SDS011;18248;51.522;7.020;2023-05-07T05:00:32;33.47;;;22.50;;
31638;SDS011;18248;51.522;7.020;2023-05-07T05:03:31;32.75;;;22.33;;
31638;SDS011;18248;51.522;7.020;2023-05-07T05:06:29;34.63;;;24.40;;
31638;SDS011;18248;51.522;7.020;2023-05-07T05:09:28;34.60;;;23.38;;
31638;SDS011;18248;51.522;7.020;2023-05-07T05:12:27;29.02;;;20.40;;
31638;SDS011;18248;51.522;7.020;2023-05-07T05:15:25;26.27;;;20.05;;
31638;SDS011;18248;51.522;7.020;2023-05-07T05:18:24;27.67;;;20.80;;
31638;SDS011;18248;51.522;7.020;2023-05-07T05:21:23;29.20;;;20.48;;
31638;SDS011;18248;51.522;7.020;2023-05-07T05:24:22;29.35;;;20.63;;
31638;SDS011;18248;51.522;7.020;2023-05-07T05:27:23;24.55;;;17.70;;
31638;SDS011;18248;51.522;7.020;2023-05-07T05:30:22;23.80;;;18.23;;
31638;SDS011;18248;51.522;7.020;2023-05-07T05:33:20;22.58;;;17.33;;
31638;SDS011;18248;51.522;7.020;2023-05-07T05:36:19;27.05;;;17.90;;
31638;SDS011;18248;51.522;7.020;2023-05-07T05:39:17;24.85;;;18.65;;
31638;SDS011;18248;51.522;7.020;2023-05-07T05:42:16;21.90;;;15.43;;
31638;SDS011;18248;51.522;7.020;2023-05-07T05:45:16;24.92;;;17.77;;
31638;SDS011;18248;51.522;7.020;2023-05-07T05:48:16;22.20;;;16.60;;
31638;SDS011;18248;51.522;7.020;2023-05-07T05:51:14;17.33;;;14.38;;
31638;SDS011;18248;51.522;7.020;2023-05-07T05:54:13;19.45;;;15.27;;
31638;SDS011;18248;51.522;7.020;2023-05-07T05:57:13;17.17;;;12.50;;
31638;SDS011;18248;51.522;7.020;2023-05-07T06:00:12;20.60;;;15.40;;
31638;SDS011;18248;51.522;7.020;2023-05-07T06:03:11;15.52;;;12.57;;
31638;SDS011;18248;51.522;7.020;2023-05-07T06:06:10;15.98;;;12.10;;
31638;SDS011;18248;51.522;7.020;2023-05-07T06:09:09;18.20;;;12.15;;
31638;SDS011;18248;51.522;7.020;2023-05-07T06:12:07;13.63;;;9.65;;
31638;SDS011;18248;51.522;7.020;2023-05-07T06:15:06;16.30;;;9.98;;
31638;SDS011;18248;51.522;7.020;2023-05-07T06:18:06;13.98;;;9.45;;
31638;SDS011;18248;51.522;7.020;2023-05-07T06:21:05;15.70;;;8.68;;
31638;SDS011;18248;51.522;7.020;2023-05-07T06:24:03;11.90;;;7.68;;
31638;SDS011;18248;51.522;7.020;2023-05-07T06:27:02;11.45;;;7.68;;
31638;SDS011;18248;51.522;7.020;2023-05-07T06:30:01;9.85;;;7.30;;
31638;SDS011;18248;51.522;7.020;2023-05-07T06:33:00;10.38;;;6.18;;
31638;SDS011;18248;51.522;7.020;2023-05-07T06:35:58;7.85;;;6.50;;
31638;SDS011;18248;51.522;7.020;2023-05-07T06:38:57;11.23;;;7.03;;
31638;SDS011;18248;51.522;7.020;2023-05-07T06:41:55;9.90;;;7.05;;
31638;SDS011;18248;51.522;7.020;2023-05-07T06:44:54;9.05;;;6.22;;
31638;SDS011;18248;51.522;7.020;2023-05-07T06:47:53;9.52;;;5.90;;
31638;SDS011;18248;51.522;7.020;2023-05-07T06:50:52;12.10;;;6.25;;
31638;SDS011;18248;51.522;7.020;2023-05-07T06:53:51;10.50;;;5.35;;
31638;SDS011;18248;51.522;7.020;2023-05-07T06:56:50;15.98;;;5.65;;
31638;SDS011;18248;51.522;7.020;2023-05-07T06:59:50;7.45;;;5.22;;
31638;SDS011;18248;51.522;7.020;2023-05-07T07:02:49;8.10;;;4.88;;
31638;SDS011;18248;51.522;7.020;2023-05-07T07:05:50;6.50;;;4.78;;
31638;SDS011;18248;51.522;7.020;2023-05-07T07:08:51;8.00;;;4.45;;
31638;SDS011;18248;51.522;7.020;2023-05-07T07:11:49;4.88;;;4.03;;
31638;SDS011;18248;51.522;7.020;2023-05-07T07:14:48;8.65;;;4.13;;
31638;SDS011;18248;51.522;7.020;2023-05-07T07:17:46;8.13;;;3.63;;
31638;SDS011;18248;51.522;7.020;2023-05-07T07:20:47;4.22;;;3.40;;
31638;SDS011;18248;51.522;7.020;2023-05-07T07:23:45;6.35;;;2.80;;
31638;SDS011;18248;51.522;7.020;2023-05-07T07:26:44;5.85;;;3.08;;
31638;SDS011;18248;51.522;7.020;2023-05-07T07:29:43;6.60;;;3.30;;
31638;SDS011;18248;51.522;7.020;2023-05-07T07:32:41;3.95;;;2.95;;
31638;SDS011;18248;51.522;7.020;2023-05-07T07:35:40;7.00;;;2.90;;
31638;SDS011;18248;51.522;7.020;2023-05-07T07:38:39;5.60;;;3.10;;
31638;SDS011;18248;51.522;7.020;2023-05-07T07:41:37;7.57;;;3.55;;
31638;SDS011;18248;51.522;7.020;2023-05-07T07:44:36;4.32;;;2.92;;
31638;SDS011;18248;51.522;7.020;2023-05-07T07:47:34;4.65;;;2.65;;
31638;SDS011;18248;51.522;7.020;2023-05-07T07:50:33;4.30;;;2.70;;
31638;SDS011;18248;51.522;7.020;2023-05-07T07:53:32;3.17;;;2.72;;
31638;SDS011;18248;51.522;7.020;2023-05-07T07:56:32;4.07;;;2.78;;
31638;SDS011;18248;51.522;7.020;2023-05-07T07:59:31;4.78;;;3.20;;
31638;SDS011;18248;51.522;7.020;2023-05-07T08:02:30;3.42;;;2.15;;
31638;SDS011;18248;51.522;7.020;2023-05-07T08:05:28;7.50;;;3.25;;
31638;SDS011;18248;51.522;7.020;2023-05-07T08:08:27;5.68;;;3.00;;
31638;SDS011;18248;51.522;7.020;2023-05-07T08:11:27;4.45;;;3.45;;
31638;SDS011;18248;51.522;7.020;2023-05-07T08:14:26;6.75;;;3.05;;
31638;SDS011;18248;51.522;7.020;2023-05-07T08:17:26;6.72;;;3.20;;
31638;SDS011;18248;51.522;7.020;2023-05-07T08:20:24;5.15;;;2.72;;
31638;SDS011;18248;51.522;7.020;2023-05-07T08:23:23;7.43;;;3.30;;
31638;SDS011;18248;51.522;7.020;2023-05-07T08:26:22;8.07;;;3.05;;
31638;SDS011;18248;51.522;7.020;2023-05-07T08:29:20;10.95;;;3.25;;
31638;SDS011;18248;51.522;7.020;2023-05-07T08:32:19;5.07;;;3.10;;
31638;SDS011;18248;51.522;7.020;2023-05-07T08:35:17;6.45;;;3.22;;
31638;SDS011;18248;51.522;7.020;2023-05-07T08:38:16;6.60;;;2.78;;
31638;SDS011;18248;51.522;7.020;2023-05-07T08:41:15;4.82;;;2.47;;
31638;SDS011;18248;51.522;7.020;2023-05-07T08:44:14;7.43;;;3.83;;
31638;SDS011;18248;51.522;7.020;2023-05-07T08:47:14;5.78;;;3.30;;
31638;SDS011;18248;51.522;7.020;2023-05-07T08:50:13;5.38;;;3.17;;
31638;SDS011;18248;51.522;7.020;2023-05-07T08:53:12;8.20;;;3.28;;
31638;SDS011;18248;51.522;7.020;2023-05-07T08:56:12;10.63;;;3.70;;
31638;SDS011;18248;51.522;7.020;2023-05-07T08:59:14;4.22;;;3.47;;
31638;SDS011;18248;51.522;7.020;2023-05-07T09:02:13;6.22;;;3.35;;
31638;SDS011;18248;51.522;7.020;2023-05-07T09:05:11;10.63;;;3.83;;
31638;SDS011;18248;51.522;7.020;2023-05-07T09:08:14;6.35;;;3.95;;
31638;SDS011;18248;51.522;7.020;2023-05-07T09:11:13;5.32;;;4.05;;
31638;SDS011;18248;51.522;7.020;2023-05-07T09:14:11;6.15;;;4.05;;
31638;SDS011;18248;51.522;7.020;2023-05-07T09:17:10;8.73;;;3.60;;
31638;SDS011;18248;51.522;7.020;2023-05-07T09:20:09;10.18;;;3.63;;
31638;SDS011;18248;51.522;7.020;2023-05-07T09:23:08;7.60;;;3.20;;
31638;SDS011;18248;51.522;7.020;2023-05-07T09:26:08;4.75;;;3.72;;
31638;SDS011;18248;51.522;7.020;2023-05-07T09:29:10;5.75;;;3.10;;
31638;SDS011;18248;51.522;7.020;2023-05-07T09:32:08;5.93;;;4.00;;
31638;SDS011;18248;51.522;7.020;2023-05-07T09:35:14;5.40;;;3.47;;
31638;SDS011;18248;51.522;7.020;2023-05-07T09:38:14;5.80;;;3.53;;
31638;SDS011;18248;51.522;7.020;2023-05-07T09:41:22;5.85;;;4.47;;
31638;SDS011;18248;51.522;7.020;2023-05-07T09:44:21;7.15;;;4.38;;
31638;SDS011;18248;51.522;7.020;2023-05-07T09:47:20;7.32;;;3.90;;
31638;SDS011;18248;51.522;7.020;2023-05-07T09:50:26;5.43;;;3.63;;
31638;SDS011;18248;51.522;7.020;2023-05-07T09:53:31;8.70;;;6.15;;
31638;SDS011;18248;51.522;7.020;2023-05-07T09:56:35;8.15;;;5.63;;
31638;SDS011;18248;51.522;7.020;2023-05-07T09:59:36;7.38;;;5.70;;
31638;SDS011;18248;51.522;7.020;2023-05-07T10:02:36;6.15;;;4.50;;
31638;SDS011;18248;51.522;7.020;2023-05-07T10:05:35;6.72;;;5.10;;
31638;SDS011;18248;51.522;7.020;2023-05-07T10:08:35;10.27;;;5.00;;
31638;SDS011;18248;51.522;7.020;2023-05-07T10:11:35;9.32;;;5.20;;
31638;SDS011;18248;51.522;7.020;2023-05-07T10:14:35;8.13;;;5.10;;
31638;SDS011;18248;51.522;7.020;2023-05-07T10:17:35;7.05;;;5.03;;
31638;SDS011;18248;51.522;7.020;2023-05-07T10:20:34;5.03;;;4.20;;
31638;SDS011;18248;51.522;7.020;2023-05-07T10:23:37;9.35;;;5.55;;
31638;SDS011;18248;51.522;7.020;2023-05-07T10:26:38;7.90;;;5.07;;
31638;SDS011;18248;51.522;7.020;2023-05-07T10:29:50;5.63;;;4.55;;
31638;SDS011;18248;51.522;7.020;2023-05-07T10:33:21;4.80;;;4.15;;
31638;SDS011;18248;51.522;7.020;2023-05-07T10:36:22;6.35;;;4.78;;
31638;SDS011;18248;51.522;7.020;2023-05-07T10:39:22;7.68;;;4.78;;
31638;SDS011;18248;51.522;7.020;2023-05-07T10:42:21;9.05;;;6.65;;
31638;SDS011;18248;51.522;7.020;2023-05-07T10:45:19;8.07;;;5.63;;
31638;SDS011;18248;51.522;7.020;2023-05-07T10:48:20;9.30;;;5.10;;
31638;SDS011;18248;51.522;7.020;2023-05-07T10:51:19;7.20;;;4.82;;
31638;SDS011;18248;51.522;7.020;2023-05-07T10:54:21;7.43;;;4.50;;
31638;SDS011;18248;51.522;7.020;2023-05-07T10:57:38;6.47;;;4.38;;
31638;SDS011;18248;51.522;7.020;2023-05-07T11:03:35;6.05;;;3.33;;
31638;SDS011;18248;51.522;7.020;2023-05-07T11:06:34;4.60;;;2.75;;
31638;SDS011;18248;51.522;7.020;2023-05-07T11:09:54;4.65;;;2.72;;
31638;SDS011;18248;51.522;7.020;2023-05-07T11:12:54;4.60;;;2.35;;
31638;SDS011;18248;51.522;7.020;2023-05-07T11:15:56;3.78;;;2.42;;
31638;SDS011;18248;51.522;7.020;2023-05-07T11:18:56;5.47;;;3.55;;
31638;SDS011;18248;51.522;7.020;2023-05-07T11:21:58;4.38;;;3.17;;
31638;SDS011;18248;51.522;7.020;2023-05-07T11:25:00;4.68;;;2.72;;
31638;SDS011;18248;51.522;7.020;2023-05-07T11:28:04;3.30;;;2.53;;
31638;SDS011;18248;51.522;7.020;2023-05-07T11:31:08;3.83;;;1.90;;
31638;SDS011;18248;51.522;7.020;2023-05-07T11:34:07;6.00;;;2.95;;
31638;SDS011;18248;51.522;7.020;2023-05-07T11:37:09;5.72;;;2.97;;
31638;SDS011;18248;51.522;7.020;2023-05-07T11:40:08;5.85;;;3.58;;
31638;SDS011;18248;51.522;7.020;2023-05-07T11:43:11;9.70;;;3.35;;
31638;SDS011;18248;51.522;7.020;2023-05-07T11:46:10;3.35;;;2.65;;
31638;SDS011;18248;51.522;7.020;2023-05-07T11:49:09;6.53;;;3.65;;
31638;SDS011;18248;51.522;7.020;2023-05-07T11:52:08;4.57;;;3.15;;
31638;SDS011;18248;51.522;7.020;2023-05-07T11:55:07;7.22;;;3.95;;
31638;SDS011;18248;51.522;7.020;2023-05-07T11:58:06;9.40;;;3.60;;
31638;SDS011;18248;51.522;7.020;2023-05-07T12:01:09;6.40;;;2.97;;
31638;SDS011;18248;51.522;7.020;2023-05-07T12:04:09;6.18;;;3.40;;
31638;SDS011;18248;51.522;7.020;2023-05-07T12:07:11;8.27;;;3.97;;
31638;SDS011;18248;51.522;7.020;2023-05-07T12:10:11;6.38;;;4.28;;
31638;SDS011;18248;51.522;7.020;2023-05-07T12:13:14;5.13;;;3.08;;
31638;SDS011;18248;51.522;7.020;2023-05-07T12:16:14;9.07;;;3.25;;
31638;SDS011;18248;51.522;7.020;2023-05-07T12:19:13;5.20;;;2.65;;
31638;SDS011;18248;51.522;7.020;2023-05-07T12:22:12;3.53;;;2.85;;
31638;SDS011;18248;51.522;7.020;2023-05-07T12:25:11;7.53;;;3.75;;
31638;SDS011;18248;51.522;7.020;2023-05-07T12:28:12;5.40;;;2.83;;
31638;SDS011;18248;51.522;7.020;2023-05-07T12:31:14;4.47;;;3.22;;
31638;SDS011;18248;51.522;7.020;2023-05-07T12:34:13;7.93;;;3.05;;
31638;SDS011;18248;51.522;7.020;2023-05-07T12:37:13;5.82;;;2.70;;
31638;SDS011;18248;51.522;7.020;2023-05-07T12:40:11;3.85;;;2.78;;
31638;SDS011;18248;51.522;7.020;2023-05-07T12:43:16;9.10;;;3.55;;
31638;SDS011;18248;51.522;7.020;2023-05-07T12:46:16;7.07;;;3.20;;
31638;SDS011;18248;51.522;7.020;2023-05-07T12:49:16;7.05;;;3.10;;
31638;SDS011;18248;51.522;7.020;2023-05-07T12:52:16;6.18;;;3.40;;
31638;SDS011;18248;51.522;7.020;2023-05-07T12:55:15;5.53;;;2.95;;
31638;SDS011;18248;51.522;7.020;2023-05-07T12:58:17;10.50;;;4.00;;
31638;SDS011;18248;51.522;7.020;2023-05-07T13:01:18;5.93;;;3.53;;
31638;SDS011;18248;51.522;7.020;2023-05-07T13:04:17;6.80;;;3.28;;
31638;SDS011;18248;51.522;7.020;2023-05-07T13:07:15;4.75;;;3.53;;
31638;SDS011;18248;51.522;7.020;2023-05-07T13:10:14;7.03;;;4.03;;
31638;SDS011;18248;51.522;7.020;2023-05-07T13:13:13;4.65;;;3.80;;
31638;SDS011;18248;51.522;7.020;2023-05-07T13:16:12;6.95;;;3.85;;
31638;SDS011;18248;51.522;7.020;2023-05-07T13:19:12;6.18;;;3.53;;
31638;SDS011;18248;51.522;7.020;2023-05-07T13:22:11;4.30;;;3.17;;
31638;SDS011;18248;51.522;7.020;2023-05-07T13:25:09;6.57;;;4.00;;
31638;SDS011;18248;51.522;7.020;2023-05-07T13:28:08;10.88;;;3.42;;
31638;SDS011;18248;51.522;7.020;2023-05-07T13:31:07;4.97;;;3.22;;
31638;SDS011;18248;51.522;7.020;2023-05-07T13:34:05;8.55;;;3.25;;
31638;SDS011;18248;51.522;7.020;2023-05-07T13:37:04;7.82;;;3.83;;
31638;SDS011;18248;51.522;7.020;2023-05-07T13:40:02;8.50;;;4.38;;
31638;SDS011;18248;51.522;7.020;2023-05-07T13:43:02;6.05;;;3.42;;
31638;SDS011;18248;51.522;7.020;2023-05-07T13:46:01;11.80;;;4.57;;
31638;SDS011;18248;51.522;7.020;2023-05-07T13:48:59;7.25;;;4.93;;
31638;SDS011;18248;51.522;7.020;2023-05-07T13:51:58;8.23;;;4.95;;
31638;SDS011;18248;51.522;7.020;2023-05-07T13:54:56;10.82;;;4.93;;
31638;SDS011;18248;51.522;7.020;2023-05-07T13:57:58;5.90;;;4.78;;
31638;SDS011;18248;51.522;7.020;2023-05-07T14:00:57;9.98;;;4.88;;
31638;SDS011;18248;51.522;7.020;2023-05-07T14:03:56;7.43;;;4.95;;
31638;SDS011;18248;51.522;7.020;2023-05-07T14:06:55;17.85;;;12.07;;
31638;SDS011;18248;51.522;7.020;2023-05-07T14:09:54;19.23;;;12.25;;
31638;SDS011;18248;51.522;7.020;2023-05-07T14:12:53;29.35;;;19.50;;
31638;SDS011;18248;51.522;7.020;2023-05-07T14:15:52;36.38;;;23.75;;
31638;SDS011;18248;51.522;7.020;2023-05-07T14:18:53;31.48;;;20.00;;
31638;SDS011;18248;51.522;7.020;2023-05-07T14:21:52;36.35;;;25.30;;
31638;SDS011;18248;51.522;7.020;2023-05-07T14:24:51;44.70;;;28.50;;
31638;SDS011;18248;51.522;7.020;2023-05-07T14:27:49;46.42;;;31.33;;
31638;SDS011;18248;51.522;7.020;2023-05-07T14:30:48;36.13;;;21.88;;
31638;SDS011;18248;51.522;7.020;2023-05-07T14:33:46;17.27;;;12.23;;
31638;SDS011;18248;51.522;7.020;2023-05-07T14:36:46;15.07;;;10.35;;
31638;SDS011;18248;51.522;7.020;2023-05-07T14:39:45;16.33;;;9.95;;
31638;SDS011;18248;51.522;7.020;2023-05-07T14:42:43;17.55;;;9.45;;
31638;SDS011;18248;51.522;7.020;2023-05-07T14:45:42;17.88;;;9.13;;
31638;SDS011;18248;51.522;7.020;2023-05-07T14:48:41;14.48;;;9.73;;
31638;SDS011;18248;51.522;7.020;2023-05-07T14:51:39;16.15;;;8.43;;
31638;SDS011;18248;51.522;7.020;2023-05-07T14:54:38;13.43;;;9.30;;
31638;SDS011;18248;51.522;7.020;2023-05-07T14:57:37;11.50;;;8.70;;
31638;SDS011;18248;51.522;7.020;2023-05-07T15:00:37;14.18;;;9.68;;
31638;SDS011;18248;51.522;7.020;2023-05-07T15:03:35;16.33;;;11.35;;
31638;SDS011;18248;51.522;7.020;2023-05-07T15:06:34;14.90;;;9.27;;
31638;SDS011;18248;51.522;7.020;2023-05-07T15:09:32;15.93;;;10.07;;
31638;SDS011;18248;51.522;7.020;2023-05-07T15:12:31;15.40;;;11.20;;
31638;SDS011;18248;51.522;7.020;2023-05-07T15:15:30;16.42;;;10.45;;
31638;SDS011;18248;51.522;7.020;2023-05-07T15:18:29;11.98;;;9.10;;
31638;SDS011;18248;51.522;7.020;2023-05-07T15:21:27;14.13;;;9.65;;
31638;SDS011;18248;51.522;7.020;2023-05-07T15:24:26;13.93;;;10.23;;
31638;SDS011;18248;51.522;7.020;2023-05-07T15:27:25;16.15;;;10.85;;
31638;SDS011;18248;51.522;7.020;2023-05-07T15:30:23;19.67;;;14.10;;
31638;SDS011;18248;51.522;7.020;2023-05-07T15:33:23;16.40;;;13.32;;
31638;SDS011;18248;51.522;7.020;2023-05-07T15:36:22;13.57;;;11.05;;
31638;SDS011;18248;51.522;7.020;2023-05-07T15:39:20;13.15;;;9.65;;
31638;SDS011;18248;51.522;7.020;2023-05-07T15:42:19;13.77;;;9.00;;
31638;SDS011;18248;51.522;7.020;2023-05-07T15:45:17;12.18;;;8.55;;
31638;SDS011;18248;51.522;7.020;2023-05-07T15:48:16;13.73;;;8.68;;
31638;SDS011;18248;51.522;7.020;2023-05-07T15:51:15;14.70;;;8.75;;
31638;SDS011;18248;51.522;7.020;2023-05-07T15:54:15;10.52;;;8.50;;
31638;SDS011;18248;51.522;7.020;2023-05-07T15:57:14;11.00;;;8.45;;
31638;SDS011;18248;51.522;7.020;2023-05-07T16:00:13;11.77;;;7.95;;
31638;SDS011;18248;51.522;7.020;2023-05-07T16:03:14;12.07;;;8.50;;
31638;SDS011;18248;51.522;7.020;2023-05-07T16:06:13;11.23;;;8.45;;
31638;SDS011;18248;51.522;7.020;2023-05-07T16:09:12;13.65;;;8.93;;
31638;SDS011;18248;51.522;7.020;2023-05-07T16:12:11;10.18;;;8.55;;
31638;SDS011;18248;51.522;7.020;2023-05-07T16:15:10;13.15;;;8.73;;
31638;SDS011;18248;51.522;7.020;2023-05-07T16:18:09;15.63;;;10.52;;
31638;SDS011;18248;51.522;7.020;2023-05-07T16:21:09;12.80;;;9.35;;
31638;SDS011;18248;51.522;7.020;2023-05-07T16:24:07;12.30;;;9.65;;
31638;SDS011;18248;51.522;7.020;2023-05-07T16:27:07;12.40;;;9.63;;
31638;SDS011;18248;51.522;7.020;2023-05-07T16:30:06;11.35;;;8.15;;
31638;SDS011;18248;51.522;7.020;2023-05-07T16:33:10;11.00;;;7.88;;
31638;SDS011;18248;51.522;7.020;2023-05-07T16:36:09;10.95;;;8.35;;
31638;SDS011;18248;51.522;7.020;2023-05-07T16:39:07;10.50;;;7.05;;
31638;SDS011;18248;51.522;7.020;2023-05-07T16:42:07;10.48;;;6.93;;
31638;SDS011;18248;51.522;7.020;2023-05-07T16:45:06;16.88;;;7.80;;
31638;SDS011;18248;51.522;7.020;2023-05-07T16:48:05;10.50;;;6.97;;
31638;SDS011;18248;51.522;7.020;2023-05-07T16:51:05;13.27;;;7.13;;
31638;SDS011;18248;51.522;7.020;2023-05-07T16:54:06;10.95;;;7.80;;
31638;SDS011;18248;51.522;7.020;2023-05-07T16:57:05;10.02;;;7.03;;
31638;SDS011;18248;51.522;7.020;2023-05-07T17:00:03;8.32;;;6.63;;
31638;SDS011;18248;51.522;7.020;2023-05-07T17:03:04;11.60;;;7.93;;
31638;SDS011;18248;51.522;7.020;2023-05-07T17:06:03;9.30;;;6.97;;
31638;SDS011;18248;51.522;7.020;2023-05-07T17:09:01;8.32;;;6.40;;
31638;SDS011;18248;51.522;7.020;2023-05-07T17:12:00;9.60;;;7.25;;
31638;SDS011;18248;51.522;7.020;2023-05-07T17:14:59;8.02;;;5.85;;
31638;SDS011;18248;51.522;7.020;2023-05-07T17:17:58;9.10;;;6.80;;
31638;SDS011;18248;51.522;7.020;2023-05-07T17:20:56;9.52;;;7.55;;
31638;SDS011;18248;51.522;7.020;2023-05-07T17:23:55;10.70;;;7.38;;
31638;SDS011;18248;51.522;7.020;2023-05-07T17:26:54;10.18;;;7.68;;
31638;SDS011;18248;51.522;7.020;2023-05-07T17:29:53;13.65;;;6.95;;
31638;SDS011;18248;51.522;7.020;2023-05-07T17:32:51;10.88;;;7.07;;
31638;SDS011;18248;51.522;7.020;2023-05-07T17:35:51;10.95;;;8.70;;
31638;SDS011;18248;51.522;7.020;2023-05-07T17:38:50;9.57;;;7.68;;
31638;SDS011;18248;51.522;7.020;2023-05-07T17:41:49;9.32;;;7.28;;
31638;SDS011;18248;51.522;7.020;2023-05-07T17:44:48;13.45;;;9.15;;
31638;SDS011;18248;51.522;7.020;2023-05-07T17:47:46;11.23;;;9.18;;
31638;SDS011;18248;51.522;7.020;2023-05-07T17:50:45;13.88;;;9.30;;